createdAt,value
2023-02-15T00:00:40.868Z,15.42
2023-02-15T00:01:40.895Z,15.43
2023-02-15T00:02:40.900Z,15.41
2023-02-15T00:03:40.916Z,15.40
2023-02-15T00:04:40.913Z,15.40
2023-02-15T00:05:40.922Z,15.42
2023-02-15T00:06:40.883Z,15.42
2023-02-15T00:07:40.945Z,15.41
2023-02-15T00:08:40.920Z,15.43
2023-02-15T00:09:40.927Z,15.41
2023-02-15T00:10:40.952Z,15.40
2023-02-15T00:11:41.084Z,15.39
2023-02-15T00:12:40.975Z,15.40
2023-02-15T00:13:40.943Z,15.38
2023-02-15T00:14:40.979Z,15.38
2023-02-15T00:15:40.982Z,15.39
2023-02-15T00:16:41.033Z,15.39
2023-02-15T00:17:41.010Z,15.39
2023-02-15T00:18:41.017Z,15.38
2023-02-15T00:19:41.024Z,15.37
2023-02-15T00:20:41.023Z,15.38
2023-02-15T00:21:41.037Z,15.38
2023-02-15T00:22:41.025Z,15.38
2023-02-15T00:23:41.046Z,15.37
2023-02-15T00:24:41.055Z,15.37
2023-02-15T00:25:41.060Z,15.35
2023-02-15T00:26:41.077Z,15.38
2023-02-15T00:27:41.158Z,15.36
2023-02-15T00:28:41.098Z,15.39
2023-02-15T00:29:41.057Z,15.37
2023-02-15T00:30:41.141Z,15.38
2023-02-15T00:31:41.153Z,15.37
2023-02-15T00:32:41.097Z,15.36
2023-02-15T00:33:41.083Z,15.36
2023-02-15T00:34:41.105Z,15.36
2023-02-15T00:35:41.096Z,15.36
2023-02-15T00:36:41.223Z,15.37
2023-02-15T00:37:41.172Z,15.38
2023-02-15T00:38:41.135Z,15.37
2023-02-15T00:39:41.133Z,15.36
2023-02-15T00:40:41.133Z,15.36
2023-02-15T00:41:41.171Z,15.37
2023-02-15T00:42:41.164Z,15.35
2023-02-15T00:43:41.168Z,15.34
2023-02-15T00:44:41.162Z,15.36
2023-02-15T00:45:41.294Z,15.34
2023-02-15T00:46:41.205Z,15.34
2023-02-15T00:47:41.226Z,15.35
2023-02-15T00:48:41.192Z,15.36
2023-02-15T00:49:41.236Z,15.33
2023-02-15T00:50:41.242Z,15.32
2023-02-15T00:51:41.267Z,15.33
2023-02-15T00:52:41.272Z,15.32
2023-02-15T00:53:41.280Z,15.35
2023-02-15T00:54:41.272Z,15.34
2023-02-15T00:55:41.265Z,15.30
2023-02-15T00:56:41.275Z,15.32
2023-02-15T00:57:41.304Z,15.32
2023-02-15T00:58:41.712Z,15.35
2023-02-15T00:59:41.299Z,15.33
2023-02-15T01:00:41.322Z,15.33
2023-02-15T01:01:41.341Z,15.31
2023-02-15T01:02:41.373Z,15.32
2023-02-15T01:03:41.340Z,15.31
2023-02-15T01:04:41.469Z,15.33
2023-02-15T01:05:41.391Z,15.31
2023-02-15T01:06:41.382Z,15.29
2023-02-15T01:07:41.417Z,15.30
2023-02-15T01:08:41.422Z,15.31
2023-02-15T01:09:41.436Z,15.31
2023-02-15T01:10:41.443Z,15.33
2023-02-15T01:11:41.478Z,15.31
2023-02-15T01:12:41.464Z,15.32
2023-02-15T01:13:41.473Z,15.30
2023-02-15T01:14:41.460Z,15.31
2023-02-15T01:15:43.936Z,15.31
2023-02-15T01:16:41.610Z,15.30
2023-02-15T01:17:41.646Z,15.30
2023-02-15T01:18:41.719Z,15.30
2023-02-15T01:19:41.658Z,15.29
2023-02-15T01:20:41.661Z,15.29
2023-02-15T01:21:41.693Z,15.27
2023-02-15T01:22:41.702Z,15.27
2023-02-15T01:23:41.710Z,15.27
2023-02-15T01:24:41.730Z,15.26
2023-02-15T01:25:41.747Z,15.28
2023-02-15T01:26:41.729Z,15.28
2023-02-15T01:27:41.740Z,15.26
2023-02-15T01:28:41.748Z,15.25
2023-02-15T01:29:41.767Z,15.27
2023-02-15T01:30:41.771Z,15.28
2023-02-15T01:31:41.907Z,15.28
2023-02-15T01:32:41.788Z,15.27
2023-02-15T01:33:41.795Z,15.28
2023-02-15T01:34:41.881Z,15.28
2023-02-15T01:35:41.819Z,15.28
2023-02-15T01:36:41.810Z,15.27
2023-02-15T01:37:41.813Z,15.25
2023-02-15T01:38:41.853Z,15.27
2023-02-15T01:39:41.837Z,15.27
2023-02-15T01:40:41.887Z,15.25
2023-02-15T01:41:41.835Z,15.27
2023-02-15T01:42:41.867Z,15.25
2023-02-15T01:43:41.901Z,15.25
2023-02-15T01:44:41.889Z,15.26
2023-02-15T01:45:41.906Z,15.25
2023-02-15T01:46:41.956Z,15.26
2023-02-15T01:47:41.934Z,15.24
2023-02-15T01:48:41.959Z,15.23
2023-02-15T01:49:41.978Z,15.26
2023-02-15T01:50:41.980Z,15.25
2023-02-15T01:51:42.026Z,15.25
2023-02-15T01:52:42.006Z,15.25
2023-02-15T01:53:42.064Z,15.26
2023-02-15T01:54:42.042Z,15.25
2023-02-15T01:55:42.075Z,15.25
2023-02-15T01:56:42.080Z,15.25
2023-02-15T01:57:42.094Z,15.25
2023-02-15T01:58:42.087Z,15.25
2023-02-15T01:59:42.122Z,15.24
2023-02-15T02:00:42.148Z,15.24
2023-02-15T02:01:42.189Z,15.25
2023-02-15T02:02:42.185Z,15.25
2023-02-15T02:03:42.165Z,15.25
2023-02-15T02:04:42.170Z,15.26
2023-02-15T02:05:42.211Z,15.24
2023-02-15T02:06:42.190Z,15.25
2023-02-15T02:07:42.211Z,15.26
2023-02-15T02:08:42.239Z,15.24
2023-02-15T02:09:42.236Z,15.23
2023-02-15T02:10:42.268Z,15.26
2023-02-15T02:11:42.290Z,15.23
2023-02-15T02:12:42.280Z,15.22
2023-02-15T02:13:42.305Z,15.23
2023-02-15T02:14:42.312Z,15.24
2023-02-15T02:15:42.355Z,15.24
2023-02-15T02:16:42.319Z,15.23
2023-02-15T02:17:42.391Z,15.23
2023-02-15T02:18:42.392Z,15.23
2023-02-15T02:19:42.384Z,15.22
2023-02-15T02:20:42.424Z,15.23
2023-02-15T02:21:42.411Z,15.23
2023-02-15T02:22:42.808Z,15.25
2023-02-15T02:23:42.471Z,15.24
2023-02-15T02:24:42.488Z,15.23
2023-02-15T02:25:42.512Z,15.23
2023-02-15T02:26:42.492Z,15.23
2023-02-15T02:27:42.571Z,15.20
2023-02-15T02:28:42.571Z,15.21
2023-02-15T02:29:42.573Z,15.22
2023-02-15T02:30:42.594Z,15.21
2023-02-15T02:31:42.705Z,15.21
2023-02-15T02:32:42.593Z,15.20
2023-02-15T02:33:42.637Z,15.22
2023-02-15T02:34:42.624Z,15.21
2023-02-15T02:35:42.650Z,15.22
2023-02-15T02:36:42.659Z,15.21
2023-02-15T02:37:42.730Z,15.23
2023-02-15T02:38:42.731Z,15.21
2023-02-15T02:39:42.748Z,15.24
2023-02-15T02:40:42.750Z,15.21
2023-02-15T02:41:42.773Z,15.23
2023-02-15T02:42:42.804Z,15.21
2023-02-15T02:43:42.817Z,15.22
2023-02-15T02:44:42.841Z,15.23
2023-02-15T02:45:42.847Z,15.21
2023-02-15T02:46:42.917Z,15.22
2023-02-15T02:47:42.867Z,15.22
2023-02-15T02:48:42.907Z,15.22
2023-02-15T02:49:42.924Z,15.22
2023-02-15T02:50:42.964Z,15.21
2023-02-15T02:51:42.966Z,15.23
2023-02-15T02:52:43.012Z,15.21
2023-02-15T02:53:43.000Z,15.21
2023-02-15T02:54:42.994Z,15.20
2023-02-15T02:55:43.033Z,15.21
2023-02-15T02:56:43.071Z,15.19
2023-02-15T02:57:43.110Z,15.18
2023-02-15T02:58:43.108Z,15.19
2023-02-15T02:59:43.151Z,15.21
2023-02-15T03:00:43.130Z,15.20
2023-02-15T03:01:43.205Z,15.18
2023-02-15T03:02:43.197Z,15.20
2023-02-15T03:03:43.218Z,15.21
2023-02-15T03:04:43.223Z,15.21
2023-02-15T03:05:43.231Z,15.19
2023-02-15T03:06:43.274Z,15.19
2023-02-15T03:07:43.273Z,15.19
2023-02-15T03:08:43.267Z,15.19
2023-02-15T03:09:43.292Z,15.19
2023-02-15T03:10:43.353Z,15.19
2023-02-15T03:11:43.348Z,15.18
2023-02-15T03:12:43.372Z,15.18
2023-02-15T03:13:43.388Z,15.18
2023-02-15T03:14:43.391Z,15.18
2023-02-15T03:15:43.455Z,15.17
2023-02-15T03:16:43.418Z,15.18
2023-02-15T03:17:43.416Z,15.19
2023-02-15T03:18:43.433Z,15.19
2023-02-15T03:19:43.446Z,15.16
2023-02-15T03:20:43.461Z,15.17
2023-02-15T03:21:43.461Z,15.17
2023-02-15T03:22:43.511Z,15.17
2023-02-15T03:23:43.536Z,15.16
2023-02-15T03:24:43.524Z,15.14
2023-02-15T03:25:43.565Z,15.16
2023-02-15T03:26:43.630Z,15.17
2023-02-15T03:27:43.583Z,15.15
2023-02-15T03:28:43.598Z,15.16
2023-02-15T03:29:43.634Z,15.17
2023-02-15T03:30:43.677Z,15.15
2023-02-15T03:31:43.812Z,15.16
2023-02-15T03:32:43.685Z,15.18
2023-02-15T03:33:43.695Z,15.15
2023-02-15T03:34:43.702Z,15.14
2023-02-15T03:35:43.724Z,15.15
2023-02-15T03:36:43.822Z,15.16
2023-02-15T03:37:43.786Z,15.17
2023-02-15T03:38:43.825Z,15.17
2023-02-15T03:39:43.802Z,15.16
2023-02-15T03:40:43.821Z,15.16
2023-02-15T03:41:43.815Z,15.16
2023-02-15T03:42:43.835Z,15.16
2023-02-15T03:43:43.830Z,15.15
2023-02-15T03:44:43.836Z,15.14
2023-02-15T03:45:43.871Z,15.13
2023-02-15T03:46:43.901Z,15.12
2023-02-15T03:47:43.887Z,15.10
2023-02-15T03:48:43.923Z,15.12
2023-02-15T03:49:43.891Z,15.11
2023-02-15T03:50:43.930Z,15.09
2023-02-15T03:51:43.893Z,15.09
2023-02-15T03:52:43.915Z,15.07
2023-02-15T03:53:43.935Z,15.06
2023-02-15T03:54:43.933Z,15.06
2023-02-15T03:55:43.934Z,15.03
2023-02-15T03:56:43.987Z,15.00
2023-02-15T03:57:43.953Z,15.00
2023-02-15T03:58:44.019Z,14.98
2023-02-15T03:59:43.997Z,14.98
2023-02-15T04:00:44.054Z,14.96
2023-02-15T04:01:43.984Z,14.95
2023-02-15T04:02:44.067Z,14.95
2023-02-15T04:03:44.027Z,14.92
2023-02-15T04:04:44.036Z,14.91
2023-02-15T04:05:44.020Z,14.89
2023-02-15T04:06:44.061Z,14.87
2023-02-15T04:07:44.028Z,14.87
2023-02-15T04:08:44.061Z,14.85
2023-02-15T04:09:44.069Z,14.84
2023-02-15T04:10:44.037Z,14.85
2023-02-15T04:11:44.169Z,14.84
2023-02-15T04:12:44.091Z,14.83
2023-02-15T04:13:44.120Z,14.81
2023-02-15T04:14:44.190Z,14.80
2023-02-15T04:15:44.237Z,14.81
2023-02-15T04:16:44.295Z,14.80
2023-02-15T04:17:44.334Z,14.80
2023-02-15T04:18:44.398Z,14.80
2023-02-15T04:19:44.462Z,14.79
2023-02-15T04:20:44.511Z,14.79
2023-02-15T04:21:44.576Z,14.78
2023-02-15T04:22:44.626Z,14.77
2023-02-15T04:23:44.718Z,14.77
2023-02-15T04:24:44.793Z,14.78
2023-02-15T04:25:44.789Z,14.74
2023-02-15T04:26:44.904Z,14.75
2023-02-15T04:27:44.917Z,14.76
2023-02-15T04:28:45.005Z,14.74
2023-02-15T04:29:45.043Z,14.76
2023-02-15T04:30:45.081Z,14.76
2023-02-15T04:31:45.211Z,14.75
2023-02-15T04:32:45.165Z,14.76
2023-02-15T04:33:45.213Z,14.77
2023-02-15T04:34:45.302Z,14.76
2023-02-15T04:35:45.323Z,14.76
2023-02-15T04:36:45.393Z,14.75
2023-02-15T04:37:45.437Z,14.75
2023-02-15T04:38:45.450Z,14.76
2023-02-15T04:39:45.542Z,14.74
2023-02-15T04:40:45.586Z,14.74
2023-02-15T04:41:45.615Z,14.73
2023-02-15T04:42:45.650Z,14.72
2023-02-15T04:43:45.722Z,14.70
2023-02-15T04:44:45.769Z,14.71
2023-02-15T04:45:45.796Z,14.73
2023-02-15T04:46:45.835Z,14.70
2023-02-15T04:47:45.873Z,14.70
2023-02-15T04:48:45.935Z,14.70
2023-02-15T04:49:45.969Z,14.69
2023-02-15T04:50:46.024Z,14.70
2023-02-15T04:51:46.068Z,14.68
2023-02-15T04:52:46.125Z,14.67
2023-02-15T04:53:46.182Z,14.67
2023-02-15T04:54:46.216Z,14.65
2023-02-15T04:55:46.263Z,14.68
2023-02-15T04:56:46.297Z,14.66
2023-02-15T04:57:46.331Z,14.64
2023-02-15T04:58:46.386Z,14.64
2023-02-15T04:59:46.460Z,14.64
2023-02-15T05:00:46.525Z,14.63
2023-02-15T05:01:46.616Z,14.63
2023-02-15T05:02:46.562Z,14.64
2023-02-15T05:03:46.615Z,14.62
2023-02-15T05:04:46.698Z,14.63
2023-02-15T05:05:46.729Z,14.62
2023-02-15T05:06:46.809Z,14.62
2023-02-15T05:07:46.813Z,14.61
2023-02-15T05:08:46.896Z,14.63
2023-02-15T05:09:46.937Z,14.61
2023-02-15T05:10:47.001Z,14.62
2023-02-15T05:11:47.052Z,14.62
2023-02-15T05:12:47.098Z,14.62
2023-02-15T05:13:47.148Z,14.61
2023-02-15T05:14:47.221Z,14.62
2023-02-15T05:15:47.250Z,14.61
2023-02-15T05:16:47.375Z,14.60
2023-02-15T05:17:47.373Z,14.61
2023-02-15T05:18:47.413Z,14.60
2023-02-15T05:19:47.503Z,14.60
2023-02-15T05:20:47.521Z,14.61
2023-02-15T05:21:47.563Z,14.60
2023-02-15T05:22:47.630Z,14.60
2023-02-15T05:23:47.715Z,14.61
2023-02-15T05:24:47.767Z,14.60
2023-02-15T05:25:47.800Z,14.58
2023-02-15T05:26:47.830Z,14.60
2023-02-15T05:27:47.944Z,14.59
2023-02-15T05:28:47.966Z,14.60
2023-02-15T05:29:48.044Z,14.58
2023-02-15T05:30:48.208Z,14.59
2023-02-15T05:31:48.427Z,14.59
2023-02-15T05:32:48.223Z,14.61
2023-02-15T05:33:48.213Z,14.59
2023-02-15T05:34:48.280Z,14.60
2023-02-15T05:35:48.343Z,14.61
2023-02-15T05:36:48.449Z,14.58
2023-02-15T05:37:48.469Z,14.60
2023-02-15T05:38:48.537Z,14.59
2023-02-15T05:39:48.601Z,14.59
2023-02-15T05:40:50.145Z,14.59
2023-02-15T05:41:48.703Z,14.58
2023-02-15T05:42:48.777Z,14.59
2023-02-15T05:43:48.813Z,14.58
2023-02-15T05:44:48.920Z,14.57
2023-02-15T05:45:48.944Z,14.57
2023-02-15T05:46:48.994Z,14.56
2023-02-15T05:47:49.074Z,14.58
2023-02-15T05:48:49.127Z,14.57
2023-02-15T05:49:49.170Z,14.56
2023-02-15T05:50:49.219Z,14.55
2023-02-15T05:51:49.275Z,14.58
2023-02-15T05:52:51.272Z,14.57
2023-02-15T05:53:49.410Z,14.56
2023-02-15T05:54:49.353Z,14.57
2023-02-15T05:55:49.312Z,14.56
2023-02-15T05:56:49.335Z,14.55
2023-02-15T05:57:49.312Z,14.56
2023-02-15T05:58:49.436Z,14.55
2023-02-15T05:59:49.303Z,14.56
2023-02-15T06:00:56.292Z,14.56
2023-02-15T06:01:49.302Z,14.57
2023-02-15T06:02:49.319Z,14.56
2023-02-15T06:03:49.315Z,14.55
2023-02-15T06:04:49.246Z,14.55
2023-02-15T06:05:49.231Z,14.55
2023-02-15T06:06:49.224Z,14.55
2023-02-15T06:07:49.230Z,14.55
2023-02-15T06:08:49.210Z,14.54
2023-02-15T06:09:49.253Z,14.54
2023-02-15T06:10:49.226Z,14.56
2023-02-15T06:11:49.204Z,14.54
2023-02-15T06:12:49.207Z,14.53
2023-02-15T06:13:49.227Z,14.55
2023-02-15T06:14:49.183Z,14.52
2023-02-15T06:15:49.245Z,14.54
2023-02-15T06:16:49.203Z,14.55
2023-02-15T06:17:49.182Z,14.53
2023-02-15T06:18:49.161Z,14.53
2023-02-15T06:19:49.167Z,14.54
2023-02-15T06:20:49.150Z,14.55
2023-02-15T06:21:49.163Z,14.54
2023-02-15T06:22:49.138Z,14.53
2023-02-15T06:23:49.128Z,14.53
2023-02-15T06:24:49.148Z,14.53
2023-02-15T06:25:49.265Z,14.51
2023-02-15T06:26:49.265Z,14.51
2023-02-15T06:27:49.342Z,14.54
2023-02-15T06:28:49.399Z,14.53
2023-02-15T06:29:49.590Z,14.52
2023-02-15T06:30:49.586Z,14.52
2023-02-15T06:31:49.666Z,14.50
2023-02-15T06:32:49.619Z,14.52
2023-02-15T06:33:49.684Z,14.52
2023-02-15T06:34:49.732Z,14.53
2023-02-15T06:35:49.727Z,14.52
2023-02-15T06:36:49.785Z,14.51
2023-02-15T06:37:49.790Z,14.52
2023-02-15T06:38:49.830Z,14.50
2023-02-15T06:39:49.833Z,14.51
2023-02-15T06:40:49.876Z,14.52
2023-02-15T06:41:49.886Z,14.51
2023-02-15T06:42:49.927Z,14.52
2023-02-15T06:43:49.943Z,14.50
2023-02-15T06:44:49.969Z,14.50
2023-02-15T06:45:57.045Z,14.51
2023-02-15T06:46:50.013Z,14.49
2023-02-15T06:47:50.001Z,14.51
2023-02-15T06:48:50.041Z,14.51
2023-02-15T06:49:49.995Z,14.50
2023-02-15T06:50:50.021Z,14.50
2023-02-15T06:51:49.963Z,14.49
2023-02-15T06:52:49.982Z,14.49
2023-02-15T06:53:49.969Z,14.48
2023-02-15T06:54:49.966Z,14.49
2023-02-15T06:55:49.919Z,14.49
2023-02-15T06:56:49.928Z,14.50
2023-02-15T06:57:51.060Z,14.49
2023-02-15T06:58:49.918Z,14.48
2023-02-15T06:59:49.920Z,14.48
2023-02-15T07:00:49.930Z,14.48
2023-02-15T07:01:49.965Z,14.48
2023-02-15T07:02:49.926Z,14.48
2023-02-15T07:03:49.912Z,14.47
2023-02-15T07:04:49.919Z,14.47
2023-02-15T07:05:49.888Z,14.47
2023-02-15T07:06:51.145Z,14.46
2023-02-15T07:07:49.866Z,14.48
2023-02-15T07:08:49.875Z,14.50
2023-02-15T07:09:49.854Z,14.49
2023-02-15T07:10:49.809Z,14.49
2023-02-15T07:11:49.802Z,14.47
2023-02-15T07:12:49.838Z,14.48
2023-02-15T07:13:49.831Z,14.47
2023-02-15T07:14:49.794Z,14.48
2023-02-15T07:15:49.848Z,14.47
2023-02-15T07:18:49.828Z,14.47
2023-02-15T07:48:49.577Z,6.46
2023-02-15T07:49:49.601Z,6.64
2023-02-15T07:50:49.569Z,6.98
2023-02-15T07:51:49.598Z,7.57
2023-02-15T07:52:49.587Z,8.25
2023-02-15T07:53:49.583Z,8.82
2023-02-15T07:54:49.572Z,9.33
2023-02-15T07:55:49.584Z,9.73
2023-02-15T07:56:49.928Z,10.10
2023-02-15T07:57:49.554Z,10.38
2023-02-15T07:58:49.516Z,10.68
2023-02-15T07:59:49.523Z,10.91
2023-02-15T08:00:49.569Z,11.12
2023-02-15T08:01:49.599Z,11.30
2023-02-15T08:02:49.679Z,11.45
2023-02-15T08:03:49.726Z,11.58
2023-02-15T08:04:49.665Z,11.69
2023-02-15T08:05:49.683Z,11.77
2023-02-15T08:06:49.784Z,11.87
2023-02-15T08:07:49.817Z,11.97
2023-02-15T08:08:49.843Z,12.08
2023-02-15T08:09:49.838Z,12.14
2023-02-15T08:10:49.840Z,12.20
2023-02-15T08:11:49.892Z,12.26
2023-02-15T08:12:49.906Z,12.31
2023-02-15T08:13:49.924Z,12.36
2023-02-15T08:14:49.933Z,12.42
2023-02-15T08:15:50.006Z,12.46
2023-02-15T08:16:50.205Z,12.50
2023-02-15T08:17:50.061Z,12.54
2023-02-15T08:18:50.131Z,12.59
2023-02-15T08:19:50.183Z,12.64
2023-02-15T08:20:50.252Z,12.66
2023-02-15T08:21:50.310Z,12.71
2023-02-15T08:22:50.364Z,12.72
2023-02-15T08:23:50.415Z,12.78
2023-02-15T08:24:50.445Z,12.82
2023-02-15T08:25:50.534Z,12.86
2023-02-15T08:26:50.549Z,12.90
2023-02-15T08:27:50.611Z,12.94
2023-02-15T08:28:50.715Z,13.00
2023-02-15T08:29:50.706Z,13.04
2023-02-15T08:38:50.726Z,13.34
2023-02-15T08:39:50.763Z,13.34
2023-02-15T08:42:50.753Z,13.38
2023-02-15T08:43:50.753Z,13.40
2023-02-15T08:44:50.766Z,13.41
2023-02-15T08:45:50.834Z,13.43
2023-02-15T08:46:50.790Z,13.47
2023-02-15T08:47:50.743Z,13.48
2023-02-15T08:48:50.812Z,13.49
2023-02-15T08:49:50.758Z,13.49
2023-02-15T08:50:50.765Z,13.51
2023-02-15T08:51:50.925Z,13.52
2023-02-15T08:52:50.773Z,13.55
2023-02-15T08:53:50.776Z,13.56
2023-02-15T08:54:50.798Z,13.57
2023-02-15T08:55:50.791Z,13.59
2023-02-15T08:56:50.816Z,13.60
2023-02-15T08:57:50.769Z,13.60
2023-02-15T08:58:50.821Z,13.62
2023-02-15T08:59:50.820Z,13.64
2023-02-15T09:00:50.822Z,13.64
2023-02-15T09:01:50.849Z,13.65
2023-02-15T12:04:15.979Z,14.18
2023-02-15T16:22:22.667Z,14.57
2023-02-15T16:23:22.719Z,14.58
2023-02-15T16:24:22.775Z,14.60
2023-02-15T16:25:22.840Z,14.58
2023-02-15T16:26:22.901Z,14.58
2023-02-15T16:27:22.964Z,14.60
2023-02-15T16:28:23.003Z,14.57
2023-02-15T16:29:23.048Z,14.60
2023-02-15T16:30:23.141Z,14.59
2023-02-15T16:31:23.220Z,14.60
2023-02-15T16:32:23.197Z,14.60
2023-02-15T16:33:23.196Z,14.61
2023-02-15T16:34:23.262Z,14.61
2023-02-15T16:35:23.252Z,14.62
2023-02-15T16:36:23.293Z,14.64
2023-02-15T16:37:23.383Z,14.63
2023-02-15T16:38:23.445Z,14.63
2023-02-15T16:39:23.534Z,14.63
2023-02-15T16:40:23.612Z,14.65
2023-02-15T16:41:23.705Z,14.66
2023-02-15T16:42:23.778Z,14.66
2023-02-15T16:43:23.783Z,14.67
2023-02-15T16:44:23.765Z,14.69
2023-02-15T16:45:23.802Z,14.68
2023-02-15T16:46:23.803Z,14.69
2023-02-15T16:47:23.796Z,14.67
2023-02-15T16:48:23.836Z,14.68
2023-02-15T16:49:23.910Z,14.70
2023-02-15T16:50:23.921Z,14.68
2023-02-15T16:51:23.889Z,14.70
2023-02-15T16:52:23.922Z,14.71
2023-02-15T16:53:23.919Z,14.70
2023-02-15T16:54:23.921Z,14.69
2023-02-15T16:55:23.969Z,14.71
2023-02-15T16:56:24.086Z,14.71
2023-02-15T16:57:24.132Z,14.71
2023-02-15T16:58:24.191Z,14.71
2023-02-15T16:59:24.123Z,14.73
2023-02-15T17:00:24.134Z,14.74
2023-02-15T17:01:24.182Z,14.74
2023-02-15T17:02:49.406Z,14.74
2023-02-15T17:03:25.198Z,14.76
2023-02-15T17:04:24.105Z,14.77
2023-02-15T17:05:24.109Z,14.77
2023-02-15T17:06:24.137Z,14.77
2023-02-15T17:07:24.095Z,14.79
2023-02-15T17:08:24.080Z,14.78
2023-02-15T17:09:24.069Z,14.79
2023-02-15T17:11:24.081Z,14.81
2023-02-15T17:40:24.288Z,14.97
2023-02-15T17:41:24.290Z,14.98
2023-02-15T17:42:24.334Z,14.98
2023-02-15T17:43:24.339Z,14.99
2023-02-15T17:44:24.360Z,14.98
2023-02-15T17:45:24.405Z,14.97
2023-02-15T17:46:24.386Z,14.98
2023-02-15T17:47:24.422Z,14.99
2023-02-15T17:48:24.435Z,15.01
2023-02-15T17:49:24.472Z,15.02
2023-02-15T17:50:24.485Z,15.03
2023-02-15T17:51:24.571Z,15.07
2023-02-15T17:52:24.553Z,15.06
2023-02-15T17:53:24.574Z,15.07
2023-02-15T17:54:24.595Z,15.08
2023-02-15T17:55:24.589Z,15.09
2023-02-15T17:56:24.652Z,15.11
2023-02-15T17:58:24.719Z,15.12
2023-02-15T17:59:24.721Z,15.13
2023-02-15T18:00:24.773Z,15.13
2023-02-15T18:01:24.797Z,15.13
2023-02-15T18:02:24.805Z,15.15
2023-02-15T18:03:24.845Z,15.15
2023-02-15T18:04:24.922Z,15.16
2023-02-15T18:05:24.888Z,15.15
2023-02-15T18:06:24.922Z,15.15
2023-02-15T18:07:24.971Z,15.15
2023-02-15T18:08:24.993Z,15.17
2023-02-15T18:09:25.022Z,15.18
2023-02-15T18:10:25.026Z,15.19
2023-02-15T18:11:25.121Z,15.19
2023-02-15T18:12:25.115Z,15.18
2023-02-15T22:26:32.666Z,15.28
2023-02-15T22:27:32.678Z,15.28
2023-02-15T22:28:32.693Z,15.28
2023-02-15T22:29:32.751Z,15.27
2023-02-15T22:30:32.822Z,15.29
2023-02-15T22:31:32.873Z,15.28
2023-02-15T22:32:32.870Z,15.28
2023-02-15T22:33:32.860Z,15.28
2023-02-15T22:34:33.590Z,15.27
2023-02-15T22:35:32.939Z,15.26
2023-02-15T22:36:32.975Z,15.28
2023-02-15T22:37:33.003Z,15.26
2023-02-15T22:38:33.019Z,15.25
2023-02-15T22:39:33.064Z,15.27
2023-02-15T22:40:33.084Z,15.27
2023-02-15T22:41:33.108Z,15.28
2023-02-15T22:42:33.152Z,15.27
2023-02-15T22:43:33.186Z,15.28
2023-02-15T22:44:33.204Z,15.26
2023-02-15T22:45:33.269Z,15.28
2023-02-15T22:46:33.251Z,15.27
2023-02-15T22:47:33.328Z,15.27
2023-02-15T22:48:33.346Z,15.26
2023-02-15T22:49:33.374Z,15.28
2023-02-15T22:50:33.392Z,15.28
2023-02-15T22:51:33.430Z,15.26
2023-02-15T22:52:33.481Z,15.25
2023-02-15T22:53:33.547Z,15.24
2023-02-15T22:54:33.502Z,15.24
2023-02-15T22:55:33.536Z,15.25
2023-02-15T22:56:33.586Z,15.23
2023-02-15T22:57:33.628Z,15.25
2023-02-15T22:58:33.660Z,15.24
2023-02-15T22:59:33.756Z,15.22
2023-02-15T23:00:33.722Z,15.22
2023-02-15T23:01:33.772Z,15.24
2023-02-15T23:02:33.871Z,15.24
2023-02-15T23:03:33.959Z,15.25
2023-02-15T23:04:33.968Z,15.24
2023-02-15T23:05:33.958Z,15.23
2023-02-15T23:06:33.973Z,15.24
2023-02-15T23:07:33.977Z,15.25
2023-02-15T23:08:34.037Z,15.24
2023-02-15T23:09:34.051Z,15.24
2023-02-15T23:10:34.105Z,15.27
2023-02-15T23:11:34.128Z,15.24
2023-02-15T23:12:34.157Z,15.23
2023-02-15T23:13:34.201Z,15.23
2023-02-15T23:14:34.237Z,15.25
2023-02-15T23:15:34.242Z,15.23
2023-02-15T23:16:34.365Z,15.23
2023-02-15T23:17:34.322Z,15.24
2023-02-15T23:18:34.368Z,15.24
2023-02-15T23:19:34.362Z,15.25
2023-02-15T23:20:34.397Z,15.25
2023-02-15T23:21:34.450Z,15.25
2023-02-15T23:22:34.511Z,15.25
2023-02-15T23:23:34.498Z,15.24
2023-02-15T23:24:34.543Z,15.24
2023-02-15T23:25:34.555Z,15.24
2023-02-15T23:26:34.601Z,15.24
2023-02-15T23:27:34.628Z,15.26
2023-02-15T23:28:34.675Z,15.25
2023-02-15T23:29:34.710Z,15.25
2023-02-15T23:30:34.713Z,15.24
2023-02-15T23:31:34.904Z,15.24
2023-02-15T23:32:34.876Z,15.24
2023-02-15T23:33:34.844Z,15.25
2023-02-15T23:34:34.864Z,15.24
2023-02-15T23:35:34.899Z,15.24
2023-02-15T23:36:34.924Z,15.24
2023-02-15T23:37:34.964Z,15.24
2023-02-15T23:38:34.980Z,15.22
2023-02-15T23:48:35.273Z,15.21
2023-02-15T23:49:35.324Z,15.22
2023-02-15T23:51:35.635Z,15.22
2023-02-15T23:52:35.652Z,15.22
2023-02-15T23:53:35.611Z,15.22
2023-02-15T23:54:35.656Z,15.21
2023-02-15T23:55:35.613Z,15.21
2023-02-15T23:56:35.624Z,15.22
2023-02-15T23:57:35.612Z,15.21
2023-02-15T23:58:35.631Z,15.21
2023-02-15T23:59:35.585Z,15.22
